sensor_id;sensor_type;location;lat;lon;timestamp;temperature;humidity
2571;DHT22;1295;51.130;6.732;2022-11-11T00:02:02;13.50;99.90
2571;DHT22;1295;51.130;6.732;2022-11-11T00:04:27;13.40;99.90
2571;DHT22;1295;51.130;6.732;2022-11-11T00:06:53;13.30;99.90
2571;DHT22;1295;51.130;6.732;2022-11-11T00:09:19;13.40;99.90
2571;DHT22;1295;51.130;6.732;2022-11-11T00:11:44;13.40;99.90
2571;DHT22;1295;51.130;6.732;2022-11-11T00:14:10;13.40;99.90
2571;DHT22;1295;51.130;6.732;2022-11-11T00:16:35;13.50;99.90
2571;DHT22;1295;51.130;6.732;2022-11-11T00:19:08;13.50;99.90
2571;DHT22;1295;51.130;6.732;2022-11-11T00:21:39;13.40;99.90
2571;DHT22;1295;51.130;6.732;2022-11-11T00:24:26;13.40;99.90
2571;DHT22;1295;51.130;6.732;2022-11-11T00:26:56;13.40;99.90
2571;DHT22;1295;51.130;6.732;2022-11-11T00:29:22;13.40;99.90
2571;DHT22;1295;51.130;6.732;2022-11-11T00:31:48;13.40;99.90
2571;DHT22;1295;51.130;6.732;2022-11-11T00:34:25;13.40;99.90
2571;DHT22;1295;51.130;6.732;2022-11-11T00:37:01;13.40;99.90
2571;DHT22;1295;51.130;6.732;2022-11-11T00:39:26;13.40;99.90
2571;DHT22;1295;51.130;6.732;2022-11-11T00:41:52;13.40;99.90
2571;DHT22;1295;51.130;6.732;2022-11-11T00:44:18;13.30;99.90
2571;DHT22;1295;51.130;6.732;2022-11-11T00:46:44;13.30;99.90
2571;DHT22;1295;51.130;6.732;2022-11-11T00:49:16;13.30;99.90
2571;DHT22;1295;51.130;6.732;2022-11-11T00:51:47;13.30;99.90
2571;DHT22;1295;51.130;6.732;2022-11-11T00:54:13;13.30;99.90
2571;DHT22;1295;51.130;6.732;2022-11-11T00:56:39;13.30;99.90
2571;DHT22;1295;51.130;6.732;2022-11-11T00:59:05;13.30;99.90
2571;DHT22;1295;51.130;6.732;2022-11-11T01:01:30;13.30;99.90
2571;DHT22;1295;51.130;6.732;2022-11-11T01:03:56;13.30;99.90
2571;DHT22;1295;51.130;6.732;2022-11-11T01:06:21;13.30;99.90
2571;DHT22;1295;51.130;6.732;2022-11-11T01:08:47;13.30;99.90
2571;DHT22;1295;51.130;6.732;2022-11-11T01:11:15;13.20;99.90
2571;DHT22;1295;51.130;6.732;2022-11-11T01:13:40;13.20;99.90
2571;DHT22;1295;51.130;6.732;2022-11-11T01:16:07;13.20;99.90
2571;DHT22;1295;51.130;6.732;2022-11-11T01:18:32;13.20;99.90
2571;DHT22;1295;51.130;6.732;2022-11-11T01:20:59;13.20;99.90
2571;DHT22;1295;51.130;6.732;2022-11-11T01:23:24;13.20;99.90
2571;DHT22;1295;51.130;6.732;2022-11-11T01:25:50;13.20;99.90
2571;DHT22;1295;51.130;6.732;2022-11-11T01:28:15;13.20;99.90
2571;DHT22;1295;51.130;6.732;2022-11-11T01:30:41;13.20;99.90
2571;DHT22;1295;51.130;6.732;2022-11-11T01:33:08;13.20;99.90
2571;DHT22;1295;51.130;6.732;2022-11-11T01:35:36;13.20;99.90
2571;DHT22;1295;51.130;6.732;2022-11-11T01:37:58;13.10;99.90
2571;DHT22;1295;51.130;6.732;2022-11-11T01:40:24;13.10;99.90
2571;DHT22;1295;51.130;6.732;2022-11-11T01:42:51;13.10;99.90
2571;DHT22;1295;51.130;6.732;2022-11-11T01:47:49;13.10;99.90
2571;DHT22;1295;51.130;6.732;2022-11-11T01:50:21;13.10;99.90
2571;DHT22;1295;51.130;6.732;2022-11-11T01:52:46;13.00;99.90
2571;DHT22;1295;51.130;6.732;2022-11-11T01:55:14;13.10;99.90
2571;DHT22;1295;51.130;6.732;2022-11-11T02:00:19;13.10;99.90
2571;DHT22;1295;51.130;6.732;2022-11-11T02:03:04;13.10;99.90
2571;DHT22;1295;51.130;6.732;2022-11-11T02:05:28;13.10;99.90
2571;DHT22;1295;51.130;6.732;2022-11-11T02:08:01;13.00;99.90
2571;DHT22;1295;51.130;6.732;2022-11-11T02:10:26;13.00;99.90
2571;DHT22;1295;51.130;6.732;2022-11-11T02:12:52;13.00;99.90
2571;DHT22;1295;51.130;6.732;2022-11-11T02:15:24;12.70;99.90
2571;DHT22;1295;51.130;6.732;2022-11-11T02:17:49;12.90;99.90
2571;DHT22;1295;51.130;6.732;2022-11-11T02:20:20;12.80;99.90
2571;DHT22;1295;51.130;6.732;2022-11-11T02:22:48;12.70;99.90
2571;DHT22;1295;51.130;6.732;2022-11-11T02:25:13;12.90;99.90
2571;DHT22;1295;51.130;6.732;2022-11-11T02:27:39;13.00;99.90
2571;DHT22;1295;51.130;6.732;2022-11-11T02:30:05;13.00;99.90
2571;DHT22;1295;51.130;6.732;2022-11-11T02:32:31;13.00;99.90
2571;DHT22;1295;51.130;6.732;2022-11-11T02:34:58;12.90;99.90
2571;DHT22;1295;51.130;6.732;2022-11-11T02:37:24;12.90;99.90
2571;DHT22;1295;51.130;6.732;2022-11-11T02:39:49;12.90;99.90
2571;DHT22;1295;51.130;6.732;2022-11-11T02:42:14;12.90;99.90
2571;DHT22;1295;51.130;6.732;2022-11-11T02:44:40;12.90;99.90
2571;DHT22;1295;51.130;6.732;2022-11-11T02:47:06;12.90;99.90
2571;DHT22;1295;51.130;6.732;2022-11-11T02:49:31;12.90;99.90
2571;DHT22;1295;51.130;6.732;2022-11-11T02:51:57;12.90;99.90
2571;DHT22;1295;51.130;6.732;2022-11-11T02:54:22;12.90;99.90
2571;DHT22;1295;51.130;6.732;2022-11-11T02:56:48;12.90;99.90
2571;DHT22;1295;51.130;6.732;2022-11-11T02:59:26;12.90;99.90
2571;DHT22;1295;51.130;6.732;2022-11-11T03:02:01;12.80;99.90
2571;DHT22;1295;51.130;6.732;2022-11-11T03:04:27;12.80;99.90
2571;DHT22;1295;51.130;6.732;2022-11-11T03:06:52;12.80;99.90
2571;DHT22;1295;51.130;6.732;2022-11-11T03:09:18;12.80;99.90
2571;DHT22;1295;51.130;6.732;2022-11-11T03:11:44;12.80;99.90
2571;DHT22;1295;51.130;6.732;2022-11-11T03:14:10;12.80;99.90
2571;DHT22;1295;51.130;6.732;2022-11-11T03:16:36;12.80;99.90
2571;DHT22;1295;51.130;6.732;2022-11-11T03:19:08;12.80;99.90
2571;DHT22;1295;51.130;6.732;2022-11-11T03:21:34;12.80;99.90
2571;DHT22;1295;51.130;6.732;2022-11-11T03:24:00;12.80;99.90
2571;DHT22;1295;51.130;6.732;2022-11-11T03:26:26;12.80;99.90
2571;DHT22;1295;51.130;6.732;2022-11-11T03:28:51;12.80;99.90
2571;DHT22;1295;51.130;6.732;2022-11-11T03:31:17;12.80;99.90
2571;DHT22;1295;51.130;6.732;2022-11-11T03:33:42;12.70;99.90
2571;DHT22;1295;51.130;6.732;2022-11-11T03:36:08;12.70;99.90
2571;DHT22;1295;51.130;6.732;2022-11-11T03:38:34;12.70;99.90
2571;DHT22;1295;51.130;6.732;2022-11-11T03:40:59;12.70;99.90
2571;DHT22;1295;51.130;6.732;2022-11-11T03:43:26;12.60;99.90
2571;DHT22;1295;51.130;6.732;2022-11-11T03:45:52;12.70;99.90
2571;DHT22;1295;51.130;6.732;2022-11-11T03:48:17;12.70;99.90
2571;DHT22;1295;51.130;6.732;2022-11-11T03:50:42;12.50;99.90
2571;DHT22;1295;51.130;6.732;2022-11-11T03:53:08;12.60;99.90
2571;DHT22;1295;51.130;6.732;2022-11-11T03:55:34;12.60;99.90
2571;DHT22;1295;51.130;6.732;2022-11-11T03:57:59;12.60;99.90
2571;DHT22;1295;51.130;6.732;2022-11-11T04:00:26;12.60;99.90
2571;DHT22;1295;51.130;6.732;2022-11-11T04:02:50;12.50;99.90
2571;DHT22;1295;51.130;6.732;2022-11-11T04:05:23;12.60;99.90
2571;DHT22;1295;51.130;6.732;2022-11-11T04:07:55;12.60;99.90
2571;DHT22;1295;51.130;6.732;2022-11-11T04:10:27;12.50;99.90
2571;DHT22;1295;51.130;6.732;2022-11-11T04:12:52;12.40;99.90
2571;DHT22;1295;51.130;6.732;2022-11-11T04:15:24;12.50;99.90
2571;DHT22;1295;51.130;6.732;2022-11-11T04:17:56;12.30;99.90
2571;DHT22;1295;51.130;6.732;2022-11-11T04:20:21;12.40;99.90
2571;DHT22;1295;51.130;6.732;2022-11-11T04:22:54;12.10;99.90
2571;DHT22;1295;51.130;6.732;2022-11-11T04:25:20;12.10;99.90
2571;DHT22;1295;51.130;6.732;2022-11-11T04:27:55;12.40;99.90
2571;DHT22;1295;51.130;6.732;2022-11-11T04:30:19;12.50;99.90
2571;DHT22;1295;51.130;6.732;2022-11-11T04:32:44;12.40;99.90
2571;DHT22;1295;51.130;6.732;2022-11-11T04:35:11;12.50;99.90
2571;DHT22;1295;51.130;6.732;2022-11-11T04:37:36;12.40;99.90
2571;DHT22;1295;51.130;6.732;2022-11-11T04:40:01;12.40;99.90
2571;DHT22;1295;51.130;6.732;2022-11-11T04:42:33;12.50;99.90
2571;DHT22;1295;51.130;6.732;2022-11-11T04:44:59;12.10;99.90
2571;DHT22;1295;51.130;6.732;2022-11-11T04:47:30;12.30;99.90
2571;DHT22;1295;51.130;6.732;2022-11-11T04:49:55;11.90;99.90
2571;DHT22;1295;51.130;6.732;2022-11-11T04:52:21;12.00;99.90
2571;DHT22;1295;51.130;6.732;2022-11-11T04:54:52;12.00;99.90
2571;DHT22;1295;51.130;6.732;2022-11-11T04:57:23;12.00;99.90
2571;DHT22;1295;51.130;6.732;2022-11-11T04:59:49;12.10;99.90
2571;DHT22;1295;51.130;6.732;2022-11-11T05:02:14;12.30;99.90
2571;DHT22;1295;51.130;6.732;2022-11-11T05:04:46;12.40;99.90
2571;DHT22;1295;51.130;6.732;2022-11-11T05:07:12;12.40;99.90
2571;DHT22;1295;51.130;6.732;2022-11-11T05:09:44;12.40;99.90
2571;DHT22;1295;51.130;6.732;2022-11-11T05:12:10;12.30;99.90
2571;DHT22;1295;51.130;6.732;2022-11-11T05:14:36;12.30;99.90
2571;DHT22;1295;51.130;6.732;2022-11-11T05:17:08;12.30;99.90
2571;DHT22;1295;51.130;6.732;2022-11-11T05:19:40;12.30;99.90
2571;DHT22;1295;51.130;6.732;2022-11-11T05:22:16;12.30;99.90
2571;DHT22;1295;51.130;6.732;2022-11-11T05:24:41;12.30;99.90
2571;DHT22;1295;51.130;6.732;2022-11-11T05:27:12;12.30;99.90
2571;DHT22;1295;51.130;6.732;2022-11-11T05:29:39;12.10;99.90
2571;DHT22;1295;51.130;6.732;2022-11-11T05:32:06;12.10;99.90
2571;DHT22;1295;51.130;6.732;2022-11-11T05:34:31;12.30;99.90
2571;DHT22;1295;51.130;6.732;2022-11-11T05:36:56;12.30;99.90
2571;DHT22;1295;51.130;6.732;2022-11-11T05:39:22;12.30;99.90
2571;DHT22;1295;51.130;6.732;2022-11-11T05:41:47;12.20;99.90
2571;DHT22;1295;51.130;6.732;2022-11-11T05:44:13;12.00;99.90
2571;DHT22;1295;51.130;6.732;2022-11-11T05:46:39;12.20;99.90
2571;DHT22;1295;51.130;6.732;2022-11-11T05:49:05;12.20;99.90
2571;DHT22;1295;51.130;6.732;2022-11-11T05:51:37;12.10;99.90
2571;DHT22;1295;51.130;6.732;2022-11-11T05:54:02;12.20;99.90
2571;DHT22;1295;51.130;6.732;2022-11-11T05:56:28;12.20;99.90
2571;DHT22;1295;51.130;6.732;2022-11-11T05:58:54;12.20;99.90
2571;DHT22;1295;51.130;6.732;2022-11-11T06:01:19;12.10;99.90
2571;DHT22;1295;51.130;6.732;2022-11-11T06:03:45;12.20;99.90
2571;DHT22;1295;51.130;6.732;2022-11-11T06:06:11;12.20;99.90
2571;DHT22;1295;51.130;6.732;2022-11-11T06:08:36;12.20;99.90
2571;DHT22;1295;51.130;6.732;2022-11-11T06:11:02;12.20;99.90
2571;DHT22;1295;51.130;6.732;2022-11-11T06:13:27;12.10;99.90
2571;DHT22;1295;51.130;6.732;2022-11-11T06:15:55;11.90;99.90
2571;DHT22;1295;51.130;6.732;2022-11-11T06:18:20;11.90;99.90
2571;DHT22;1295;51.130;6.732;2022-11-11T06:20:51;11.90;99.90
2571;DHT22;1295;51.130;6.732;2022-11-11T06:23:11;11.90;99.90
2571;DHT22;1295;51.130;6.732;2022-11-11T06:25:38;12.10;99.90
2571;DHT22;1295;51.130;6.732;2022-11-11T06:28:09;12.10;99.90
2571;DHT22;1295;51.130;6.732;2022-11-11T06:30:35;11.80;99.90
2571;DHT22;1295;51.130;6.732;2022-11-11T06:33:01;11.80;99.90
2571;DHT22;1295;51.130;6.732;2022-11-11T06:35:26;11.90;99.90
2571;DHT22;1295;51.130;6.732;2022-11-11T06:37:52;11.90;99.90
2571;DHT22;1295;51.130;6.732;2022-11-11T06:40:17;11.90;99.90
2571;DHT22;1295;51.130;6.732;2022-11-11T06:42:43;11.30;99.90
2571;DHT22;1295;51.130;6.732;2022-11-11T06:45:09;11.40;99.90
2571;DHT22;1295;51.130;6.732;2022-11-11T06:47:35;11.60;99.90
2571;DHT22;1295;51.130;6.732;2022-11-11T06:50:00;11.80;99.90
2571;DHT22;1295;51.130;6.732;2022-11-11T06:52:26;11.80;99.90
2571;DHT22;1295;51.130;6.732;2022-11-11T06:54:51;11.90;99.90
2571;DHT22;1295;51.130;6.732;2022-11-11T06:57:17;11.90;99.90
2571;DHT22;1295;51.130;6.732;2022-11-11T06:59:43;11.70;99.90
2571;DHT22;1295;51.130;6.732;2022-11-11T07:02:15;11.60;99.90
2571;DHT22;1295;51.130;6.732;2022-11-11T07:04:41;11.80;99.90
2571;DHT22;1295;51.130;6.732;2022-11-11T07:07:06;11.90;99.90
2571;DHT22;1295;51.130;6.732;2022-11-11T07:09:32;11.90;99.90
2571;DHT22;1295;51.130;6.732;2022-11-11T07:11:58;12.00;99.90
2571;DHT22;1295;51.130;6.732;2022-11-11T07:14:24;11.90;99.90
2571;DHT22;1295;51.130;6.732;2022-11-11T07:16:50;12.00;99.90
2571;DHT22;1295;51.130;6.732;2022-11-11T07:19:17;12.00;99.90
2571;DHT22;1295;51.130;6.732;2022-11-11T07:21:43;11.90;99.90
2571;DHT22;1295;51.130;6.732;2022-11-11T07:24:08;11.90;99.90
2571;DHT22;1295;51.130;6.732;2022-11-11T07:26:34;12.00;99.90
2571;DHT22;1295;51.130;6.732;2022-11-11T07:28:59;11.80;99.90
2571;DHT22;1295;51.130;6.732;2022-11-11T07:31:25;11.90;99.90
2571;DHT22;1295;51.130;6.732;2022-11-11T07:33:51;11.90;99.90
2571;DHT22;1295;51.130;6.732;2022-11-11T07:36:16;11.90;99.90
2571;DHT22;1295;51.130;6.732;2022-11-11T07:38:42;11.90;99.90
2571;DHT22;1295;51.130;6.732;2022-11-11T07:41:08;11.90;99.90
2571;DHT22;1295;51.130;6.732;2022-11-11T07:43:33;11.70;99.90
2571;DHT22;1295;51.130;6.732;2022-11-11T07:45:59;11.70;99.90
2571;DHT22;1295;51.130;6.732;2022-11-11T07:48:24;11.80;99.90
2571;DHT22;1295;51.130;6.732;2022-11-11T07:50:51;11.90;99.90
2571;DHT22;1295;51.130;6.732;2022-11-11T07:53:16;11.70;99.90
2571;DHT22;1295;51.130;6.732;2022-11-11T07:55:43;11.80;99.90
2571;DHT22;1295;51.130;6.732;2022-11-11T07:58:08;11.80;99.90
2571;DHT22;1295;51.130;6.732;2022-11-11T08:00:33;11.80;99.90
2571;DHT22;1295;51.130;6.732;2022-11-11T08:02:59;11.80;99.90
2571;DHT22;1295;51.130;6.732;2022-11-11T08:05:25;11.80;99.90
2571;DHT22;1295;51.130;6.732;2022-11-11T08:07:50;11.80;99.90
2571;DHT22;1295;51.130;6.732;2022-11-11T08:10:16;11.70;99.90
2571;DHT22;1295;51.130;6.732;2022-11-11T08:12:42;11.80;99.90
2571;DHT22;1295;51.130;6.732;2022-11-11T08:15:13;11.80;99.90
2571;DHT22;1295;51.130;6.732;2022-11-11T08:17:39;11.80;99.90
2571;DHT22;1295;51.130;6.732;2022-11-11T08:20:06;11.80;99.90
2571;DHT22;1295;51.130;6.732;2022-11-11T08:22:35;11.70;99.90
2571;DHT22;1295;51.130;6.732;2022-11-11T08:25:00;11.70;99.90
2571;DHT22;1295;51.130;6.732;2022-11-11T08:27:26;11.70;99.90
2571;DHT22;1295;51.130;6.732;2022-11-11T08:29:56;11.80;99.90
2571;DHT22;1295;51.130;6.732;2022-11-11T08:32:28;11.70;99.90
2571;DHT22;1295;51.130;6.732;2022-11-11T08:34:53;11.70;99.90
2571;DHT22;1295;51.130;6.732;2022-11-11T08:37:19;11.70;99.90
2571;DHT22;1295;51.130;6.732;2022-11-11T08:39:44;11.80;99.90
2571;DHT22;1295;51.130;6.732;2022-11-11T08:42:10;11.70;99.90
2571;DHT22;1295;51.130;6.732;2022-11-11T08:44:35;11.70;99.90
2571;DHT22;1295;51.130;6.732;2022-11-11T08:47:01;11.60;99.90
2571;DHT22;1295;51.130;6.732;2022-11-11T08:49:27;11.60;99.90
2571;DHT22;1295;51.130;6.732;2022-11-11T08:51:52;11.70;99.90
2571;DHT22;1295;51.130;6.732;2022-11-11T08:54:18;11.70;99.90
2571;DHT22;1295;51.130;6.732;2022-11-11T08:56:43;11.70;99.90
2571;DHT22;1295;51.130;6.732;2022-11-11T08:59:09;11.80;99.90
2571;DHT22;1295;51.130;6.732;2022-11-11T09:01:35;11.70;99.90
2571;DHT22;1295;51.130;6.732;2022-11-11T09:04:01;11.90;99.90
2571;DHT22;1295;51.130;6.732;2022-11-11T09:06:27;11.90;99.90
2571;DHT22;1295;51.130;6.732;2022-11-11T09:08:52;11.90;99.90
2571;DHT22;1295;51.130;6.732;2022-11-11T09:11:18;12.00;99.90
2571;DHT22;1295;51.130;6.732;2022-11-11T09:13:45;12.10;99.90
2571;DHT22;1295;51.130;6.732;2022-11-11T09:16:10;12.10;99.90
2571;DHT22;1295;51.130;6.732;2022-11-11T09:18:35;12.20;99.90
2571;DHT22;1295;51.130;6.732;2022-11-11T09:21:02;12.20;99.90
2571;DHT22;1295;51.130;6.732;2022-11-11T09:23:27;12.30;99.90
2571;DHT22;1295;51.130;6.732;2022-11-11T09:25:52;12.10;99.90
2571;DHT22;1295;51.130;6.732;2022-11-11T09:28:18;12.30;99.90
2571;DHT22;1295;51.130;6.732;2022-11-11T09:30:44;12.40;99.90
2571;DHT22;1295;51.130;6.732;2022-11-11T09:33:09;12.50;99.90
2571;DHT22;1295;51.130;6.732;2022-11-11T09:35:35;12.50;99.90
2571;DHT22;1295;51.130;6.732;2022-11-11T09:38:01;12.60;99.90
2571;DHT22;1295;51.130;6.732;2022-11-11T09:40:33;12.60;99.90
2571;DHT22;1295;51.130;6.732;2022-11-11T09:43:04;12.80;99.90
2571;DHT22;1295;51.130;6.732;2022-11-11T09:45:36;12.70;99.90
2571;DHT22;1295;51.130;6.732;2022-11-11T09:50:32;12.80;99.90
2571;DHT22;1295;51.130;6.732;2022-11-11T09:53:00;12.70;99.90
2571;DHT22;1295;51.130;6.732;2022-11-11T09:55:29;12.80;99.90
2571;DHT22;1295;51.130;6.732;2022-11-11T09:57:53;12.80;99.90
2571;DHT22;1295;51.130;6.732;2022-11-11T10:00:21;12.80;99.90
2571;DHT22;1295;51.130;6.732;2022-11-11T10:02:50;12.80;99.90
2571;DHT22;1295;51.130;6.732;2022-11-11T10:05:15;12.80;99.90
2571;DHT22;1295;51.130;6.732;2022-11-11T10:07:46;12.70;99.90
2571;DHT22;1295;51.130;6.732;2022-11-11T10:12:55;12.80;99.90
2571;DHT22;1295;51.130;6.732;2022-11-11T10:15:20;12.80;99.90
2571;DHT22;1295;51.130;6.732;2022-11-11T10:17:54;12.80;99.90
2571;DHT22;1295;51.130;6.732;2022-11-11T10:20:24;12.70;99.90
2571;DHT22;1295;51.130;6.732;2022-11-11T10:22:49;12.80;99.90
2571;DHT22;1295;51.130;6.732;2022-11-11T10:25:23;12.80;99.90
2571;DHT22;1295;51.130;6.732;2022-11-11T10:27:51;12.90;99.90
2571;DHT22;1295;51.130;6.732;2022-11-11T10:30:27;12.90;99.90
2571;DHT22;1295;51.130;6.732;2022-11-11T10:33:18;12.90;99.90
2571;DHT22;1295;51.130;6.732;2022-11-11T10:35:41;12.90;99.90
2571;DHT22;1295;51.130;6.732;2022-11-11T10:38:25;12.80;99.90
2571;DHT22;1295;51.130;6.732;2022-11-11T10:40:48;12.90;99.90
2571;DHT22;1295;51.130;6.732;2022-11-11T10:43:24;13.00;99.90
2571;DHT22;1295;51.130;6.732;2022-11-11T10:46:12;13.10;99.90
2571;DHT22;1295;51.130;6.732;2022-11-11T10:48:42;13.00;99.90
2571;DHT22;1295;51.130;6.732;2022-11-11T10:51:06;13.00;99.90
2571;DHT22;1295;51.130;6.732;2022-11-11T10:53:37;12.90;99.90
2571;DHT22;1295;51.130;6.732;2022-11-11T10:56:07;13.00;99.90
2571;DHT22;1295;51.130;6.732;2022-11-11T10:58:33;12.80;99.90
2571;DHT22;1295;51.130;6.732;2022-11-11T11:00:59;12.90;99.90
2571;DHT22;1295;51.130;6.732;2022-11-11T11:03:24;12.90;99.90
2571;DHT22;1295;51.130;6.732;2022-11-11T11:08:23;13.00;99.90
2571;DHT22;1295;51.130;6.732;2022-11-11T11:10:49;13.30;99.90
2571;DHT22;1295;51.130;6.732;2022-11-11T11:13:28;13.20;99.90
2571;DHT22;1295;51.130;6.732;2022-11-11T11:16:03;13.10;99.90
2571;DHT22;1295;51.130;6.732;2022-11-11T11:18:25;13.00;99.90
2571;DHT22;1295;51.130;6.732;2022-11-11T11:20:55;12.90;99.90
2571;DHT22;1295;51.130;6.732;2022-11-11T11:23:33;13.10;99.90
2571;DHT22;1295;51.130;6.732;2022-11-11T11:25:53;13.20;99.90
2571;DHT22;1295;51.130;6.732;2022-11-11T11:28:23;13.30;99.90
2571;DHT22;1295;51.130;6.732;2022-11-11T11:31:02;13.30;99.90
2571;DHT22;1295;51.130;6.732;2022-11-11T11:33:26;13.30;99.90
2571;DHT22;1295;51.130;6.732;2022-11-11T11:35:52;13.50;99.90
2571;DHT22;1295;51.130;6.732;2022-11-11T11:38:18;13.10;99.90
2571;DHT22;1295;51.130;6.732;2022-11-11T11:40:54;13.00;99.90
2571;DHT22;1295;51.130;6.732;2022-11-11T11:43:25;13.20;99.90
2571;DHT22;1295;51.130;6.732;2022-11-11T11:45:55;13.10;99.90
2571;DHT22;1295;51.130;6.732;2022-11-11T11:48:34;13.10;99.90
2571;DHT22;1295;51.130;6.732;2022-11-11T11:51:08;13.10;99.90
2571;DHT22;1295;51.130;6.732;2022-11-11T11:53:34;13.10;99.90
2571;DHT22;1295;51.130;6.732;2022-11-11T11:56:06;13.10;99.90
2571;DHT22;1295;51.130;6.732;2022-11-11T11:58:52;13.30;99.90
2571;DHT22;1295;51.130;6.732;2022-11-11T12:01:12;13.30;99.90
2571;DHT22;1295;51.130;6.732;2022-11-11T12:03:58;13.60;99.90
2571;DHT22;1295;51.130;6.732;2022-11-11T12:06:28;13.80;99.90
2571;DHT22;1295;51.130;6.732;2022-11-11T12:09:00;13.70;99.90
2571;DHT22;1295;51.130;6.732;2022-11-11T12:11:38;13.70;99.90
2571;DHT22;1295;51.130;6.732;2022-11-11T12:14:16;13.50;99.90
2571;DHT22;1295;51.130;6.732;2022-11-11T12:16:42;13.50;99.90
2571;DHT22;1295;51.130;6.732;2022-11-11T12:19:21;14.00;99.90
2571;DHT22;1295;51.130;6.732;2022-11-11T12:24:34;14.00;99.90
2571;DHT22;1295;51.130;6.732;2022-11-11T12:27:00;13.80;99.90
2571;DHT22;1295;51.130;6.732;2022-11-11T12:29:34;13.80;99.90
2571;DHT22;1295;51.130;6.732;2022-11-11T12:32:03;14.00;99.90
2571;DHT22;1295;51.130;6.732;2022-11-11T12:34:34;14.40;99.90
2571;DHT22;1295;51.130;6.732;2022-11-11T12:37:02;15.00;99.90
2571;DHT22;1295;51.130;6.732;2022-11-11T12:40:37;15.10;99.90
2571;DHT22;1295;51.130;6.732;2022-11-11T12:42:18;15.20;99.90
2571;DHT22;1295;51.130;6.732;2022-11-11T12:44:58;15.10;99.90
2571;DHT22;1295;51.130;6.732;2022-11-11T12:47:45;14.90;99.90
2571;DHT22;1295;51.130;6.732;2022-11-11T12:52:50;15.20;99.90
2571;DHT22;1295;51.130;6.732;2022-11-11T12:55:19;15.10;99.90
2571;DHT22;1295;51.130;6.732;2022-11-11T12:58:06;14.70;99.90
2571;DHT22;1295;51.130;6.732;2022-11-11T13:00:28;15.30;99.90
2571;DHT22;1295;51.130;6.732;2022-11-11T13:03:17;14.30;99.90
2571;DHT22;1295;51.130;6.732;2022-11-11T13:06:09;14.30;99.90
2571;DHT22;1295;51.130;6.732;2022-11-11T13:11:41;14.10;99.90
2571;DHT22;1295;51.130;6.732;2022-11-11T13:14:21;14.00;99.90
2571;DHT22;1295;51.130;6.732;2022-11-11T13:16:31;14.10;99.90
2571;DHT22;1295;51.130;6.732;2022-11-11T13:19:02;14.10;99.90
2571;DHT22;1295;51.130;6.732;2022-11-11T13:21:45;14.00;99.90
2571;DHT22;1295;51.130;6.732;2022-11-11T13:24:11;13.90;99.90
2571;DHT22;1295;51.130;6.732;2022-11-11T13:26:39;14.10;99.90
2571;DHT22;1295;51.130;6.732;2022-11-11T13:29:16;14.50;99.90
2571;DHT22;1295;51.130;6.732;2022-11-11T13:31:35;14.20;99.90
2571;DHT22;1295;51.130;6.732;2022-11-11T13:34:02;14.00;99.90
2571;DHT22;1295;51.130;6.732;2022-11-11T13:36:27;14.60;99.90
2571;DHT22;1295;51.130;6.732;2022-11-11T13:38:53;14.00;99.90
2571;DHT22;1295;51.130;6.732;2022-11-11T13:41:33;14.30;99.90
2571;DHT22;1295;51.130;6.732;2022-11-11T13:44:02;13.90;99.90
2571;DHT22;1295;51.130;6.732;2022-11-11T13:46:31;13.90;99.90
2571;DHT22;1295;51.130;6.732;2022-11-11T13:48:56;13.60;99.90
2571;DHT22;1295;51.130;6.732;2022-11-11T13:51:24;13.60;99.90
2571;DHT22;1295;51.130;6.732;2022-11-11T13:53:49;13.90;99.90
2571;DHT22;1295;51.130;6.732;2022-11-11T13:56:28;14.10;99.90
2571;DHT22;1295;51.130;6.732;2022-11-11T13:58:52;14.50;99.90
2571;DHT22;1295;51.130;6.732;2022-11-11T14:01:24;13.90;99.90
2571;DHT22;1295;51.130;6.732;2022-11-11T14:03:56;13.80;99.90
2571;DHT22;1295;51.130;6.732;2022-11-11T14:06:47;13.70;99.90
2571;DHT22;1295;51.130;6.732;2022-11-11T14:09:02;13.70;99.90
2571;DHT22;1295;51.130;6.732;2022-11-11T14:11:35;14.00;99.90
2571;DHT22;1295;51.130;6.732;2022-11-11T14:14:43;14.20;99.90
2571;DHT22;1295;51.130;6.732;2022-11-11T14:16:59;13.90;99.90
2571;DHT22;1295;51.130;6.732;2022-11-11T14:19:28;14.40;99.90
2571;DHT22;1295;51.130;6.732;2022-11-11T14:22:00;14.00;99.90
2571;DHT22;1295;51.130;6.732;2022-11-11T14:24:35;14.00;99.90
2571;DHT22;1295;51.130;6.732;2022-11-11T14:27:02;14.00;99.90
2571;DHT22;1295;51.130;6.732;2022-11-11T14:29:29;14.00;99.90
2571;DHT22;1295;51.130;6.732;2022-11-11T14:32:16;14.10;99.90
2571;DHT22;1295;51.130;6.732;2022-11-11T14:34:47;14.20;99.90
2571;DHT22;1295;51.130;6.732;2022-11-11T14:37:19;14.10;99.90
2571;DHT22;1295;51.130;6.732;2022-11-11T14:39:43;14.20;99.90
2571;DHT22;1295;51.130;6.732;2022-11-11T14:42:40;14.10;99.90
2571;DHT22;1295;51.130;6.732;2022-11-11T14:44:40;14.10;99.90
2571;DHT22;1295;51.130;6.732;2022-11-11T14:47:17;14.00;99.90
2571;DHT22;1295;51.130;6.732;2022-11-11T14:49:44;13.80;99.90
2571;DHT22;1295;51.130;6.732;2022-11-11T14:54:58;13.60;99.90
2571;DHT22;1295;51.130;6.732;2022-11-11T14:57:24;13.60;99.90
2571;DHT22;1295;51.130;6.732;2022-11-11T14:59:49;13.70;99.90
2571;DHT22;1295;51.130;6.732;2022-11-11T15:02:21;13.70;99.90
2571;DHT22;1295;51.130;6.732;2022-11-11T15:04:43;13.70;99.90
2571;DHT22;1295;51.130;6.732;2022-11-11T15:07:17;13.70;99.90
2571;DHT22;1295;51.130;6.732;2022-11-11T15:09:49;13.80;99.90
2571;DHT22;1295;51.130;6.732;2022-11-11T15:12:15;13.70;99.90
2571;DHT22;1295;51.130;6.732;2022-11-11T15:14:47;13.60;99.90
2571;DHT22;1295;51.130;6.732;2022-11-11T15:20:16;13.60;99.90
2571;DHT22;1295;51.130;6.732;2022-11-11T15:23:00;13.50;99.90
2571;DHT22;1295;51.130;6.732;2022-11-11T15:28:29;13.60;99.90
2571;DHT22;1295;51.130;6.732;2022-11-11T15:30:52;13.50;99.90
2571;DHT22;1295;51.130;6.732;2022-11-11T15:33:17;13.50;99.90
2571;DHT22;1295;51.130;6.732;2022-11-11T15:35:45;13.40;99.90
2571;DHT22;1295;51.130;6.732;2022-11-11T15:38:08;13.40;99.90
2571;DHT22;1295;51.130;6.732;2022-11-11T15:40:42;13.30;99.90
2571;DHT22;1295;51.130;6.732;2022-11-11T15:43:10;13.30;99.90
2571;DHT22;1295;51.130;6.732;2022-11-11T15:45:33;13.40;99.90
2571;DHT22;1295;51.130;6.732;2022-11-11T15:47:58;13.40;99.90
2571;DHT22;1295;51.130;6.732;2022-11-11T15:50:33;13.30;99.90
2571;DHT22;1295;51.130;6.732;2022-11-11T15:52:59;13.30;99.90
2571;DHT22;1295;51.130;6.732;2022-11-11T15:55:26;13.30;99.90
2571;DHT22;1295;51.130;6.732;2022-11-11T15:57:50;13.30;99.90
2571;DHT22;1295;51.130;6.732;2022-11-11T16:00:27;13.30;99.90
2571;DHT22;1295;51.130;6.732;2022-11-11T16:02:52;13.30;99.90
2571;DHT22;1295;51.130;6.732;2022-11-11T16:05:20;13.20;99.90
2571;DHT22;1295;51.130;6.732;2022-11-11T16:07:45;13.20;99.90
2571;DHT22;1295;51.130;6.732;2022-11-11T16:10:13;13.20;99.90
2571;DHT22;1295;51.130;6.732;2022-11-11T16:12:43;13.20;99.90
2571;DHT22;1295;51.130;6.732;2022-11-11T16:15:08;13.20;99.90
2571;DHT22;1295;51.130;6.732;2022-11-11T16:17:36;13.10;99.90
2571;DHT22;1295;51.130;6.732;2022-11-11T16:20:02;13.20;99.90
2571;DHT22;1295;51.130;6.732;2022-11-11T16:22:28;13.10;99.90
2571;DHT22;1295;51.130;6.732;2022-11-11T16:24:53;13.10;99.90
2571;DHT22;1295;51.130;6.732;2022-11-11T16:27:20;13.10;99.90
2571;DHT22;1295;51.130;6.732;2022-11-11T16:29:44;13.10;99.90
2571;DHT22;1295;51.130;6.732;2022-11-11T16:32:18;13.10;99.90
2571;DHT22;1295;51.130;6.732;2022-11-11T16:34:43;13.10;99.90
2571;DHT22;1295;51.130;6.732;2022-11-11T16:37:09;13.10;99.90
2571;DHT22;1295;51.130;6.732;2022-11-11T16:39:35;13.00;99.90